sensor_id;sensor_type;location;lat;lon;timestamp;temperature;humidity
78788;DHT22;68131;52.508;5.502;2023-07-13T00:01:20;19.20;69.20
78788;DHT22;68131;52.508;5.502;2023-07-13T00:03:50;19.20;69.30
78788;DHT22;68131;52.508;5.502;2023-07-13T00:06:22;19.20;69.40
78788;DHT22;68131;52.508;5.502;2023-07-13T00:08:59;19.20;69.50
78788;DHT22;68131;52.508;5.502;2023-07-13T00:11:29;19.20;69.50
78788;DHT22;68131;52.508;5.502;2023-07-13T00:13:58;19.20;69.50
78788;DHT22;68131;52.508;5.502;2023-07-13T00:16:28;19.20;69.50
78788;DHT22;68131;52.508;5.502;2023-07-13T00:18:59;19.20;69.50
78788;DHT22;68131;52.508;5.502;2023-07-13T00:21:37;19.20;69.60
78788;DHT22;68131;52.508;5.502;2023-07-13T00:24:12;19.20;69.60
78788;DHT22;68131;52.508;5.502;2023-07-13T00:26:42;19.30;69.50
78788;DHT22;68131;52.508;5.502;2023-07-13T00:29:12;19.30;69.60
78788;DHT22;68131;52.508;5.502;2023-07-13T00:31:45;19.30;69.80
78788;DHT22;68131;52.508;5.502;2023-07-13T00:34:17;19.30;69.70
78788;DHT22;68131;52.508;5.502;2023-07-13T00:36:48;19.30;69.80
78788;DHT22;68131;52.508;5.502;2023-07-13T00:39:18;19.30;69.80
78788;DHT22;68131;52.508;5.502;2023-07-13T00:41:51;19.30;69.80
78788;DHT22;68131;52.508;5.502;2023-07-13T00:44:23;19.30;69.70
78788;DHT22;68131;52.508;5.502;2023-07-13T00:46:57;19.30;69.60
78788;DHT22;68131;52.508;5.502;2023-07-13T00:49:30;19.40;69.60
78788;DHT22;68131;52.508;5.502;2023-07-13T00:52:05;19.40;69.50
78788;DHT22;68131;52.508;5.502;2023-07-13T00:54:39;19.40;69.80
78788;DHT22;68131;52.508;5.502;2023-07-13T00:57:14;19.40;70.10
78788;DHT22;68131;52.508;5.502;2023-07-13T00:59:47;19.30;70.20
78788;DHT22;68131;52.508;5.502;2023-07-13T01:02:18;19.30;70.10
78788;DHT22;68131;52.508;5.502;2023-07-13T01:04:49;19.40;70.10
78788;DHT22;68131;52.508;5.502;2023-07-13T01:07:23;19.40;70.10
78788;DHT22;68131;52.508;5.502;2023-07-13T01:09:52;19.40;70.20
78788;DHT22;68131;52.508;5.502;2023-07-13T01:12:22;19.30;70.20
78788;DHT22;68131;52.508;5.502;2023-07-13T01:14:57;19.30;70.10
78788;DHT22;68131;52.508;5.502;2023-07-13T01:17:27;19.40;70.10
78788;DHT22;68131;52.508;5.502;2023-07-13T01:20:00;19.40;70.10
78788;DHT22;68131;52.508;5.502;2023-07-13T01:22:33;19.40;70.10
78788;DHT22;68131;52.508;5.502;2023-07-13T01:25:03;19.30;70.10
78788;DHT22;68131;52.508;5.502;2023-07-13T01:27:33;19.40;70.10
78788;DHT22;68131;52.508;5.502;2023-07-13T01:30:03;19.40;70.00
78788;DHT22;68131;52.508;5.502;2023-07-13T01:32:35;19.40;70.00
78788;DHT22;68131;52.508;5.502;2023-07-13T01:35:08;19.40;70.00
78788;DHT22;68131;52.508;5.502;2023-07-13T01:37:41;19.40;70.00
78788;DHT22;68131;52.508;5.502;2023-07-13T01:40:12;19.40;70.00
78788;DHT22;68131;52.508;5.502;2023-07-13T01:42:41;19.40;70.00
78788;DHT22;68131;52.508;5.502;2023-07-13T01:45:11;19.40;70.00
78788;DHT22;68131;52.508;5.502;2023-07-13T01:47:41;19.30;70.10
78788;DHT22;68131;52.508;5.502;2023-07-13T01:50:11;19.40;70.10
78788;DHT22;68131;52.508;5.502;2023-07-13T01:52:43;19.30;70.20
78788;DHT22;68131;52.508;5.502;2023-07-13T01:55:13;19.30;70.20
78788;DHT22;68131;52.508;5.502;2023-07-13T01:57:43;19.30;70.20
78788;DHT22;68131;52.508;5.502;2023-07-13T02:00:14;19.30;70.30
78788;DHT22;68131;52.508;5.502;2023-07-13T02:02:47;19.30;70.40
78788;DHT22;68131;52.508;5.502;2023-07-13T02:05:16;19.30;70.40
78788;DHT22;68131;52.508;5.502;2023-07-13T02:07:50;19.30;70.50
78788;DHT22;68131;52.508;5.502;2023-07-13T02:10:19;19.30;70.60
78788;DHT22;68131;52.508;5.502;2023-07-13T02:12:49;19.20;70.60
78788;DHT22;68131;52.508;5.502;2023-07-13T02:15:19;19.20;70.60
78788;DHT22;68131;52.508;5.502;2023-07-13T02:17:49;19.20;70.60
78788;DHT22;68131;52.508;5.502;2023-07-13T02:20:18;19.20;70.60
78788;DHT22;68131;52.508;5.502;2023-07-13T02:22:50;19.20;70.50
78788;DHT22;68131;52.508;5.502;2023-07-13T02:25:21;19.20;70.60
78788;DHT22;68131;52.508;5.502;2023-07-13T02:27:51;19.20;70.60
78788;DHT22;68131;52.508;5.502;2023-07-13T02:30:28;19.20;70.60
78788;DHT22;68131;52.508;5.502;2023-07-13T02:32:58;19.10;70.60
78788;DHT22;68131;52.508;5.502;2023-07-13T02:35:31;19.10;70.60
78788;DHT22;68131;52.508;5.502;2023-07-13T02:38:06;19.00;70.70
78788;DHT22;68131;52.508;5.502;2023-07-13T02:40:35;19.00;70.60
78788;DHT22;68131;52.508;5.502;2023-07-13T02:43:07;19.00;70.50
78788;DHT22;68131;52.508;5.502;2023-07-13T02:45:37;19.00;70.50
78788;DHT22;68131;52.508;5.502;2023-07-13T02:48:06;19.00;70.40
78788;DHT22;68131;52.508;5.502;2023-07-13T02:50:36;19.00;70.40
78788;DHT22;68131;52.508;5.502;2023-07-13T02:53:10;19.00;70.40
78788;DHT22;68131;52.508;5.502;2023-07-13T02:55:41;19.00;70.30
78788;DHT22;68131;52.508;5.502;2023-07-13T02:58:15;19.00;70.30
78788;DHT22;68131;52.508;5.502;2023-07-13T03:00:46;19.00;70.20
78788;DHT22;68131;52.508;5.502;2023-07-13T03:03:17;18.90;70.20
78788;DHT22;68131;52.508;5.502;2023-07-13T03:05:47;18.90;70.30
78788;DHT22;68131;52.508;5.502;2023-07-13T03:08:22;18.90;70.30
78788;DHT22;68131;52.508;5.502;2023-07-13T03:10:59;18.80;70.40
78788;DHT22;68131;52.508;5.502;2023-07-13T03:13:31;18.80;70.40
78788;DHT22;68131;52.508;5.502;2023-07-13T03:16:01;18.80;70.30
78788;DHT22;68131;52.508;5.502;2023-07-13T03:18:31;18.70;70.30
78788;DHT22;68131;52.508;5.502;2023-07-13T03:21:04;18.80;70.30
78788;DHT22;68131;52.508;5.502;2023-07-13T03:23:36;18.80;70.30
78788;DHT22;68131;52.508;5.502;2023-07-13T03:26:08;18.80;70.30
78788;DHT22;68131;52.508;5.502;2023-07-13T03:28:40;18.80;70.40
78788;DHT22;68131;52.508;5.502;2023-07-13T03:31:16;18.70;70.50
78788;DHT22;68131;52.508;5.502;2023-07-13T03:33:46;18.70;70.50
78788;DHT22;68131;52.508;5.502;2023-07-13T03:36:18;18.70;70.50
78788;DHT22;68131;52.508;5.502;2023-07-13T03:38:54;18.70;70.60
78788;DHT22;68131;52.508;5.502;2023-07-13T03:41:28;18.70;70.50
78788;DHT22;68131;52.508;5.502;2023-07-13T03:44:04;18.70;70.50
78788;DHT22;68131;52.508;5.502;2023-07-13T03:46:33;18.70;70.50
78788;DHT22;68131;52.508;5.502;2023-07-13T03:49:04;18.70;70.50
78788;DHT22;68131;52.508;5.502;2023-07-13T03:51:34;18.70;70.50
78788;DHT22;68131;52.508;5.502;2023-07-13T03:54:07;18.70;70.50
78788;DHT22;68131;52.508;5.502;2023-07-13T03:56:38;18.70;70.50
78788;DHT22;68131;52.508;5.502;2023-07-13T03:59:09;18.70;70.40
78788;DHT22;68131;52.508;5.502;2023-07-13T04:01:38;18.80;70.30
78788;DHT22;68131;52.508;5.502;2023-07-13T04:04:10;18.80;70.30
78788;DHT22;68131;52.508;5.502;2023-07-13T04:06:40;18.80;70.20
78788;DHT22;68131;52.508;5.502;2023-07-13T04:09:18;18.80;70.20
78788;DHT22;68131;52.508;5.502;2023-07-13T04:11:47;18.80;70.20
78788;DHT22;68131;52.508;5.502;2023-07-13T04:14:17;18.80;70.20
78788;DHT22;68131;52.508;5.502;2023-07-13T04:16:49;18.80;70.20
78788;DHT22;68131;52.508;5.502;2023-07-13T04:19:18;18.80;70.10
78788;DHT22;68131;52.508;5.502;2023-07-13T04:21:50;18.80;70.10
78788;DHT22;68131;52.508;5.502;2023-07-13T04:24:25;18.80;70.00
78788;DHT22;68131;52.508;5.502;2023-07-13T04:26:55;18.90;69.90
78788;DHT22;68131;52.508;5.502;2023-07-13T04:29:25;18.90;69.80
78788;DHT22;68131;52.508;5.502;2023-07-13T04:31:56;18.90;69.60
78788;DHT22;68131;52.508;5.502;2023-07-13T04:34:28;18.90;69.60
78788;DHT22;68131;52.508;5.502;2023-07-13T04:36:57;19.00;69.50
78788;DHT22;68131;52.508;5.502;2023-07-13T04:39:29;19.00;69.50
78788;DHT22;68131;52.508;5.502;2023-07-13T04:42:00;19.00;69.40
78788;DHT22;68131;52.508;5.502;2023-07-13T04:44:29;19.10;69.40
78788;DHT22;68131;52.508;5.502;2023-07-13T04:47:01;19.20;69.30
78788;DHT22;68131;52.508;5.502;2023-07-13T04:49:31;19.50;69.10
78788;DHT22;68131;52.508;5.502;2023-07-13T04:52:00;19.80;68.70
78788;DHT22;68131;52.508;5.502;2023-07-13T04:54:35;20.10;68.30
78788;DHT22;68131;52.508;5.502;2023-07-13T04:57:05;20.30;68.00
78788;DHT22;68131;52.508;5.502;2023-07-13T04:59:35;20.60;67.60
78788;DHT22;68131;52.508;5.502;2023-07-13T05:02:05;20.80;67.20
78788;DHT22;68131;52.508;5.502;2023-07-13T05:04:34;21.10;66.90
78788;DHT22;68131;52.508;5.502;2023-07-13T05:07:04;21.30;66.40
78788;DHT22;68131;52.508;5.502;2023-07-13T05:09:37;21.60;66.00
78788;DHT22;68131;52.508;5.502;2023-07-13T05:12:08;21.80;65.80
78788;DHT22;68131;52.508;5.502;2023-07-13T05:14:37;22.00;65.30
78788;DHT22;68131;52.508;5.502;2023-07-13T05:17:07;22.20;64.80
78788;DHT22;68131;52.508;5.502;2023-07-13T05:19:36;22.30;64.50
78788;DHT22;68131;52.508;5.502;2023-07-13T05:22:05;22.20;64.60
78788;DHT22;68131;52.508;5.502;2023-07-13T05:24:37;22.10;64.70
78788;DHT22;68131;52.508;5.502;2023-07-13T05:27:07;22.00;65.00
78788;DHT22;68131;52.508;5.502;2023-07-13T05:29:36;22.00;64.80
78788;DHT22;68131;52.508;5.502;2023-07-13T05:32:06;21.80;65.00
78788;DHT22;68131;52.508;5.502;2023-07-13T05:34:35;21.70;65.20
78788;DHT22;68131;52.508;5.502;2023-07-13T05:37:05;21.70;65.50
78788;DHT22;68131;52.508;5.502;2023-07-13T05:39:37;21.60;65.20
78788;DHT22;68131;52.508;5.502;2023-07-13T05:42:07;21.40;65.60
78788;DHT22;68131;52.508;5.502;2023-07-13T05:44:36;21.30;65.90
78788;DHT22;68131;52.508;5.502;2023-07-13T05:47:06;21.20;66.10
78788;DHT22;68131;52.508;5.502;2023-07-13T05:49:36;21.10;66.20
78788;DHT22;68131;52.508;5.502;2023-07-13T05:52:08;20.90;66.60
78788;DHT22;68131;52.508;5.502;2023-07-13T05:54:40;20.80;67.00
78788;DHT22;68131;52.508;5.502;2023-07-13T05:57:10;20.70;67.10
78788;DHT22;68131;52.508;5.502;2023-07-13T05:59:40;20.70;67.30
78788;DHT22;68131;52.508;5.502;2023-07-13T06:02:10;20.70;67.50
78788;DHT22;68131;52.508;5.502;2023-07-13T06:04:39;20.60;67.60
78788;DHT22;68131;52.508;5.502;2023-07-13T06:07:09;20.60;67.80
78788;DHT22;68131;52.508;5.502;2023-07-13T06:09:44;20.60;67.90
78788;DHT22;68131;52.508;5.502;2023-07-13T06:12:13;20.50;68.30
78788;DHT22;68131;52.508;5.502;2023-07-13T06:14:42;20.50;68.30
78788;DHT22;68131;52.508;5.502;2023-07-13T06:17:49;20.50;68.50
78788;DHT22;68131;52.508;5.502;2023-07-13T06:20:18;20.40;68.90
78788;DHT22;68131;52.508;5.502;2023-07-13T06:22:48;20.40;68.90
78788;DHT22;68131;52.508;5.502;2023-07-13T06:25:22;20.40;68.80
78788;DHT22;68131;52.508;5.502;2023-07-13T06:27:51;20.40;68.90
78788;DHT22;68131;52.508;5.502;2023-07-13T06:30:20;20.40;68.80
78788;DHT22;68131;52.508;5.502;2023-07-13T06:32:50;20.40;68.80
78788;DHT22;68131;52.508;5.502;2023-07-13T06:35:19;20.50;69.00
78788;DHT22;68131;52.508;5.502;2023-07-13T06:37:48;20.50;69.00
78788;DHT22;68131;52.508;5.502;2023-07-13T06:40:22;20.60;69.00
78788;DHT22;68131;52.508;5.502;2023-07-13T06:42:51;20.60;69.10
78788;DHT22;68131;52.508;5.502;2023-07-13T06:45:20;20.60;69.20
78788;DHT22;68131;52.508;5.502;2023-07-13T06:47:50;20.70;69.20
78788;DHT22;68131;52.508;5.502;2023-07-13T06:50:21;20.70;69.20
78788;DHT22;68131;52.508;5.502;2023-07-13T06:52:50;20.80;69.20
78788;DHT22;68131;52.508;5.502;2023-07-13T06:55:22;20.80;69.10
78788;DHT22;68131;52.508;5.502;2023-07-13T06:57:52;20.90;69.10
78788;DHT22;68131;52.508;5.502;2023-07-13T07:00:22;21.00;69.10
78788;DHT22;68131;52.508;5.502;2023-07-13T07:02:51;21.00;69.20
78788;DHT22;68131;52.508;5.502;2023-07-13T07:05:20;21.00;69.10
78788;DHT22;68131;52.508;5.502;2023-07-13T07:07:50;21.10;69.00
78788;DHT22;68131;52.508;5.502;2023-07-13T07:10:24;21.20;69.00
78788;DHT22;68131;52.508;5.502;2023-07-13T07:12:54;21.30;68.90
78788;DHT22;68131;52.508;5.502;2023-07-13T07:15:24;21.40;68.60
78788;DHT22;68131;52.508;5.502;2023-07-13T07:17:53;21.70;68.30
78788;DHT22;68131;52.508;5.502;2023-07-13T07:20:23;22.10;67.00
78788;DHT22;68131;52.508;5.502;2023-07-13T07:22:52;22.40;66.70
78788;DHT22;68131;52.508;5.502;2023-07-13T07:25:26;22.70;65.70
78788;DHT22;68131;52.508;5.502;2023-07-13T07:27:58;22.80;64.60
78788;DHT22;68131;52.508;5.502;2023-07-13T07:30:27;22.80;65.00
78788;DHT22;68131;52.508;5.502;2023-07-13T07:32:57;23.00;64.70
78788;DHT22;68131;52.508;5.502;2023-07-13T07:35:28;23.20;64.70
78788;DHT22;68131;52.508;5.502;2023-07-13T07:37:58;23.30;63.60
78788;DHT22;68131;52.508;5.502;2023-07-13T07:40:31;23.30;63.60
78788;DHT22;68131;52.508;5.502;2023-07-13T07:43:00;23.10;63.20
78788;DHT22;68131;52.508;5.502;2023-07-13T07:45:30;23.00;62.60
78788;DHT22;68131;52.508;5.502;2023-07-13T07:47:59;22.80;62.90
78788;DHT22;68131;52.508;5.502;2023-07-13T07:50:28;22.50;62.80
78788;DHT22;68131;52.508;5.502;2023-07-13T07:52:58;22.30;62.90
78788;DHT22;68131;52.508;5.502;2023-07-13T07:55:31;22.10;63.40
78788;DHT22;68131;52.508;5.502;2023-07-13T07:58:04;21.90;63.70
78788;DHT22;68131;52.508;5.502;2023-07-13T08:00:37;21.90;63.80
78788;DHT22;68131;52.508;5.502;2023-07-13T08:03:07;21.70;63.50
78788;DHT22;68131;52.508;5.502;2023-07-13T08:05:36;21.50;63.80
78788;DHT22;68131;52.508;5.502;2023-07-13T08:08:05;21.40;63.90
78788;DHT22;68131;52.508;5.502;2023-07-13T08:10:38;21.30;63.90
78788;DHT22;68131;52.508;5.502;2023-07-13T08:13:07;21.20;64.00
78788;DHT22;68131;52.508;5.502;2023-07-13T08:15:38;21.10;64.20
78788;DHT22;68131;52.508;5.502;2023-07-13T08:18:08;21.00;64.30
78788;DHT22;68131;52.508;5.502;2023-07-13T08:20:40;21.00;64.50
78788;DHT22;68131;52.508;5.502;2023-07-13T08:23:11;21.00;64.60
78788;DHT22;68131;52.508;5.502;2023-07-13T08:25:50;21.00;64.90
78788;DHT22;68131;52.508;5.502;2023-07-13T08:28:21;21.30;65.00
78788;DHT22;68131;52.508;5.502;2023-07-13T08:30:53;21.60;64.20
78788;DHT22;68131;52.508;5.502;2023-07-13T08:33:22;21.80;64.00
78788;DHT22;68131;52.508;5.502;2023-07-13T08:35:54;22.00;63.90
78788;DHT22;68131;52.508;5.502;2023-07-13T08:38:23;22.40;63.60
78788;DHT22;68131;52.508;5.502;2023-07-13T08:40:56;22.60;62.40
78788;DHT22;68131;52.508;5.502;2023-07-13T08:43:28;22.60;62.60
78788;DHT22;68131;52.508;5.502;2023-07-13T08:46:02;22.80;62.70
78788;DHT22;68131;52.508;5.502;2023-07-13T08:48:36;22.90;62.60
78788;DHT22;68131;52.508;5.502;2023-07-13T08:51:23;23.10;62.50
78788;DHT22;68131;52.508;5.502;2023-07-13T08:53:58;23.30;62.50
78788;DHT22;68131;52.508;5.502;2023-07-13T08:56:32;23.60;62.40
78788;DHT22;68131;52.508;5.502;2023-07-13T08:59:09;23.90;61.60
78788;DHT22;68131;52.508;5.502;2023-07-13T09:04:50;24.50;59.30
78788;DHT22;68131;52.508;5.502;2023-07-13T09:07:29;24.50;58.60
78788;DHT22;68131;52.508;5.502;2023-07-13T09:10:09;24.40;58.50
78788;DHT22;68131;52.508;5.502;2023-07-13T09:12:53;24.30;58.40
78788;DHT22;68131;52.508;5.502;2023-07-13T09:15:30;24.20;58.60
78788;DHT22;68131;52.508;5.502;2023-07-13T09:18:04;24.20;58.00
78788;DHT22;68131;52.508;5.502;2023-07-13T09:20:37;24.30;57.90
78788;DHT22;68131;52.508;5.502;2023-07-13T09:23:12;24.40;57.10
78788;DHT22;68131;52.508;5.502;2023-07-13T09:25:46;24.60;57.30
78788;DHT22;68131;52.508;5.502;2023-07-13T09:28:23;24.50;57.40
78788;DHT22;68131;52.508;5.502;2023-07-13T09:30:58;24.20;57.80
78788;DHT22;68131;52.508;5.502;2023-07-13T09:33:29;24.10;57.60
78788;DHT22;68131;52.508;5.502;2023-07-13T09:36:00;24.00;57.20
78788;DHT22;68131;52.508;5.502;2023-07-13T09:38:36;23.90;57.10
78788;DHT22;68131;52.508;5.502;2023-07-13T09:41:19;23.70;57.50
78788;DHT22;68131;52.508;5.502;2023-07-13T09:44:10;23.60;57.90
78788;DHT22;68131;52.508;5.502;2023-07-13T09:46:44;23.40;57.90
78788;DHT22;68131;52.508;5.502;2023-07-13T09:49:14;23.40;58.10
78788;DHT22;68131;52.508;5.502;2023-07-13T09:51:44;23.40;58.30
78788;DHT22;68131;52.508;5.502;2023-07-13T09:54:18;23.40;58.40
78788;DHT22;68131;52.508;5.502;2023-07-13T09:56:54;23.60;57.20
78788;DHT22;68131;52.508;5.502;2023-07-13T09:59:27;23.70;56.60
78788;DHT22;68131;52.508;5.502;2023-07-13T10:01:57;23.80;56.50
78788;DHT22;68131;52.508;5.502;2023-07-13T10:04:30;23.90;56.50
78788;DHT22;68131;52.508;5.502;2023-07-13T10:07:07;24.10;55.90
78788;DHT22;68131;52.508;5.502;2023-07-13T10:09:40;24.30;55.30
78788;DHT22;68131;52.508;5.502;2023-07-13T10:12:14;24.60;54.90
78788;DHT22;68131;52.508;5.502;2023-07-13T10:14:47;24.70;54.30
78788;DHT22;68131;52.508;5.502;2023-07-13T10:17:18;24.70;54.60
78788;DHT22;68131;52.508;5.502;2023-07-13T10:19:49;24.60;54.80
78788;DHT22;68131;52.508;5.502;2023-07-13T10:22:26;24.70;54.90
78788;DHT22;68131;52.508;5.502;2023-07-13T10:24:56;24.80;55.10
78788;DHT22;68131;52.508;5.502;2023-07-13T10:27:32;25.00;54.10
78788;DHT22;68131;52.508;5.502;2023-07-13T10:30:12;25.30;54.10
78788;DHT22;68131;52.508;5.502;2023-07-13T10:32:46;25.40;53.20
78788;DHT22;68131;52.508;5.502;2023-07-13T10:35:18;25.40;53.10
78788;DHT22;68131;52.508;5.502;2023-07-13T10:37:52;25.40;53.60
78788;DHT22;68131;52.508;5.502;2023-07-13T10:40:25;25.50;52.50
78788;DHT22;68131;52.508;5.502;2023-07-13T10:42:57;25.40;53.00
78788;DHT22;68131;52.508;5.502;2023-07-13T10:45:40;25.50;52.90
78788;DHT22;68131;52.508;5.502;2023-07-13T10:48:13;25.50;53.30
78788;DHT22;68131;52.508;5.502;2023-07-13T10:50:49;25.50;52.80
78788;DHT22;68131;52.508;5.502;2023-07-13T10:53:21;25.60;52.70
78788;DHT22;68131;52.508;5.502;2023-07-13T10:55:58;25.70;53.20
78788;DHT22;68131;52.508;5.502;2023-07-13T10:58:34;25.90;52.80
78788;DHT22;68131;52.508;5.502;2023-07-13T11:01:08;26.00;52.50
78788;DHT22;68131;52.508;5.502;2023-07-13T11:03:48;26.00;52.20
78788;DHT22;68131;52.508;5.502;2023-07-13T11:06:33;26.00;51.50
78788;DHT22;68131;52.508;5.502;2023-07-13T11:09:24;25.90;51.40
78788;DHT22;68131;52.508;5.502;2023-07-13T11:11:59;25.80;52.10
78788;DHT22;68131;52.508;5.502;2023-07-13T11:14:31;25.90;52.40
78788;DHT22;68131;52.508;5.502;2023-07-13T11:17:38;26.00;52.00
78788;DHT22;68131;52.508;5.502;2023-07-13T11:20:33;26.00;52.10
78788;DHT22;68131;52.508;5.502;2023-07-13T11:23:35;26.10;52.00
78788;DHT22;68131;52.508;5.502;2023-07-13T11:26:38;26.10;51.60
78788;DHT22;68131;52.508;5.502;2023-07-13T11:29:28;26.00;51.20
78788;DHT22;68131;52.508;5.502;2023-07-13T11:35:00;25.90;51.90
78788;DHT22;68131;52.508;5.502;2023-07-13T11:37:30;25.80;51.80
78788;DHT22;68131;52.508;5.502;2023-07-13T11:40:00;25.90;51.90
78788;DHT22;68131;52.508;5.502;2023-07-13T11:42:30;25.80;51.40
78788;DHT22;68131;52.508;5.502;2023-07-13T11:45:00;25.70;51.80
78788;DHT22;68131;52.508;5.502;2023-07-13T11:47:33;25.60;51.80
78788;DHT22;68131;52.508;5.502;2023-07-13T11:50:06;25.60;52.20
78788;DHT22;68131;52.508;5.502;2023-07-13T11:52:38;25.60;52.30
78788;DHT22;68131;52.508;5.502;2023-07-13T11:55:14;25.60;52.20
78788;DHT22;68131;52.508;5.502;2023-07-13T11:57:47;25.70;52.00
78788;DHT22;68131;52.508;5.502;2023-07-13T12:00:21;25.70;51.50
78788;DHT22;68131;52.508;5.502;2023-07-13T12:02:55;25.70;51.60
78788;DHT22;68131;52.508;5.502;2023-07-13T12:05:28;25.70;51.50
78788;DHT22;68131;52.508;5.502;2023-07-13T12:08:03;25.70;51.40
78788;DHT22;68131;52.508;5.502;2023-07-13T12:10:40;25.70;51.50
78788;DHT22;68131;52.508;5.502;2023-07-13T12:13:13;25.60;51.50
78788;DHT22;68131;52.508;5.502;2023-07-13T12:15:44;25.60;51.40
78788;DHT22;68131;52.508;5.502;2023-07-13T12:18:18;25.50;51.70
78788;DHT22;68131;52.508;5.502;2023-07-13T12:20:51;25.60;51.60
78788;DHT22;68131;52.508;5.502;2023-07-13T12:23:24;25.60;51.60
78788;DHT22;68131;52.508;5.502;2023-07-13T12:25:54;25.60;51.30
78788;DHT22;68131;52.508;5.502;2023-07-13T12:28:32;25.60;51.60
78788;DHT22;68131;52.508;5.502;2023-07-13T12:31:03;25.60;51.40
78788;DHT22;68131;52.508;5.502;2023-07-13T12:33:39;25.60;51.30
78788;DHT22;68131;52.508;5.502;2023-07-13T12:36:14;25.60;51.50
78788;DHT22;68131;52.508;5.502;2023-07-13T12:38:45;25.60;51.20
78788;DHT22;68131;52.508;5.502;2023-07-13T12:41:15;25.50;51.60
78788;DHT22;68131;52.508;5.502;2023-07-13T12:43:45;25.50;51.90
78788;DHT22;68131;52.508;5.502;2023-07-13T12:46:17;25.50;51.70
78788;DHT22;68131;52.508;5.502;2023-07-13T12:48:49;25.50;51.30
78788;DHT22;68131;52.508;5.502;2023-07-13T12:51:26;25.50;51.50
78788;DHT22;68131;52.508;5.502;2023-07-13T12:54:06;25.40;51.70
78788;DHT22;68131;52.508;5.502;2023-07-13T12:56:43;25.40;51.70
78788;DHT22;68131;52.508;5.502;2023-07-13T12:59:18;25.30;51.80
78788;DHT22;68131;52.508;5.502;2023-07-13T13:01:48;25.20;51.90
78788;DHT22;68131;52.508;5.502;2023-07-13T13:04:20;25.20;52.00
78788;DHT22;68131;52.508;5.502;2023-07-13T13:07:00;25.20;52.10
78788;DHT22;68131;52.508;5.502;2023-07-13T13:09:30;25.30;52.00
78788;DHT22;68131;52.508;5.502;2023-07-13T13:12:00;25.30;52.20
78788;DHT22;68131;52.508;5.502;2023-07-13T13:14:29;25.30;51.90
78788;DHT22;68131;52.508;5.502;2023-07-13T13:16:58;25.30;51.80
78788;DHT22;68131;52.508;5.502;2023-07-13T13:19:31;25.20;51.80
78788;DHT22;68131;52.508;5.502;2023-07-13T13:22:03;25.20;51.90
78788;DHT22;68131;52.508;5.502;2023-07-13T13:24:33;25.30;52.20
78788;DHT22;68131;52.508;5.502;2023-07-13T13:27:03;25.30;52.40
78788;DHT22;68131;52.508;5.502;2023-07-13T13:29:34;25.30;52.40
78788;DHT22;68131;52.508;5.502;2023-07-13T13:32:08;25.30;52.60
78788;DHT22;68131;52.508;5.502;2023-07-13T13:34:38;25.30;52.60
78788;DHT22;68131;52.508;5.502;2023-07-13T13:37:17;25.30;52.80
78788;DHT22;68131;52.508;5.502;2023-07-13T13:39:55;25.30;52.60
78788;DHT22;68131;52.508;5.502;2023-07-13T13:42:24;25.30;52.70
78788;DHT22;68131;52.508;5.502;2023-07-13T13:44:55;25.30;52.20
78788;DHT22;68131;52.508;5.502;2023-07-13T13:47:30;25.20;52.60
78788;DHT22;68131;52.508;5.502;2023-07-13T13:50:00;25.20;52.80
78788;DHT22;68131;52.508;5.502;2023-07-13T13:52:35;25.20;53.00
78788;DHT22;68131;52.508;5.502;2023-07-13T13:55:12;25.10;53.00
78788;DHT22;68131;52.508;5.502;2023-07-13T13:57:42;25.00;53.00
78788;DHT22;68131;52.508;5.502;2023-07-13T14:00:12;25.00;53.10
78788;DHT22;68131;52.508;5.502;2023-07-13T14:02:45;24.90;53.10
78788;DHT22;68131;52.508;5.502;2023-07-13T14:05:21;24.90;53.50
78788;DHT22;68131;52.508;5.502;2023-07-13T14:07:54;24.90;53.50
78788;DHT22;68131;52.508;5.502;2023-07-13T14:10:24;24.80;53.70
78788;DHT22;68131;52.508;5.502;2023-07-13T14:12:54;24.90;53.80
78788;DHT22;68131;52.508;5.502;2023-07-13T14:15:27;24.90;53.80
78788;DHT22;68131;52.508;5.502;2023-07-13T14:18:07;25.00;53.90
78788;DHT22;68131;52.508;5.502;2023-07-13T14:20:38;25.00;53.80
78788;DHT22;68131;52.508;5.502;2023-07-13T14:23:10;25.00;53.70
78788;DHT22;68131;52.508;5.502;2023-07-13T14:25:39;25.00;53.60
78788;DHT22;68131;52.508;5.502;2023-07-13T14:28:20;24.90;53.50
78788;DHT22;68131;52.508;5.502;2023-07-13T14:30:51;24.90;53.80
78788;DHT22;68131;52.508;5.502;2023-07-13T14:33:23;24.90;53.80
78788;DHT22;68131;52.508;5.502;2023-07-13T14:36:17;25.00;53.20
78788;DHT22;68131;52.508;5.502;2023-07-13T14:38:52;24.90;53.40
78788;DHT22;68131;52.508;5.502;2023-07-13T14:41:22;24.90;53.50
78788;DHT22;68131;52.508;5.502;2023-07-13T14:43:54;24.90;53.40
78788;DHT22;68131;52.508;5.502;2023-07-13T14:46:28;24.80;53.70
78788;DHT22;68131;52.508;5.502;2023-07-13T14:49:02;24.80;53.80
78788;DHT22;68131;52.508;5.502;2023-07-13T14:51:33;24.80;53.70
78788;DHT22;68131;52.508;5.502;2023-07-13T14:54:07;24.80;53.90
78788;DHT22;68131;52.508;5.502;2023-07-13T14:56:39;24.80;53.80
78788;DHT22;68131;52.508;5.502;2023-07-13T14:59:08;24.70;53.60
78788;DHT22;68131;52.508;5.502;2023-07-13T15:01:39;24.60;53.80
78788;DHT22;68131;52.508;5.502;2023-07-13T15:04:12;24.60;54.00
78788;DHT22;68131;52.508;5.502;2023-07-13T15:06:59;24.60;54.40
78788;DHT22;68131;52.508;5.502;2023-07-13T15:09:32;24.60;54.50
78788;DHT22;68131;52.508;5.502;2023-07-13T15:12:01;24.70;54.50
78788;DHT22;68131;52.508;5.502;2023-07-13T15:14:31;24.60;54.60
78788;DHT22;68131;52.508;5.502;2023-07-13T15:17:03;24.60;54.90
78788;DHT22;68131;52.508;5.502;2023-07-13T15:19:32;24.60;54.80
78788;DHT22;68131;52.508;5.502;2023-07-13T15:22:02;24.60;54.50
78788;DHT22;68131;52.508;5.502;2023-07-13T15:24:37;24.50;54.70
78788;DHT22;68131;52.508;5.502;2023-07-13T15:27:10;24.50;54.80
78788;DHT22;68131;52.508;5.502;2023-07-13T15:29:39;24.50;54.90
78788;DHT22;68131;52.508;5.502;2023-07-13T15:32:13;24.50;54.90
78788;DHT22;68131;52.508;5.502;2023-07-13T15:34:43;24.50;54.60
78788;DHT22;68131;52.508;5.502;2023-07-13T15:37:14;24.50;54.50
78788;DHT22;68131;52.508;5.502;2023-07-13T15:39:49;24.60;54.20
78788;DHT22;68131;52.508;5.502;2023-07-13T15:42:22;24.50;54.00
78788;DHT22;68131;52.508;5.502;2023-07-13T15:44:54;24.60;54.40
78788;DHT22;68131;52.508;5.502;2023-07-13T15:47:27;24.70;54.40
78788;DHT22;68131;52.508;5.502;2023-07-13T15:49:56;24.80;54.50
78788;DHT22;68131;52.508;5.502;2023-07-13T15:52:27;24.90;54.40
78788;DHT22;68131;52.508;5.502;2023-07-13T15:55:00;24.90;54.10
78788;DHT22;68131;52.508;5.502;2023-07-13T15:57:33;25.00;54.10
78788;DHT22;68131;52.508;5.502;2023-07-13T16:00:14;25.00;54.20
78788;DHT22;68131;52.508;5.502;2023-07-13T16:02:46;25.10;53.90
78788;DHT22;68131;52.508;5.502;2023-07-13T16:05:19;25.10;54.00
78788;DHT22;68131;52.508;5.502;2023-07-13T16:07:51;25.10;54.00
78788;DHT22;68131;52.508;5.502;2023-07-13T16:10:32;25.20;54.00